Time;durP1;ratioP1;P1;durP2;ratioP2;P2;SDS_P1;SDS_P2;PMS_P1;PMS_P2;Temp;Humidity;BMP_temperature;BMP_pressure;BME280_temperature;BME280_humidity;BME280_pressure;Samples;Min_cycle;Max_cycle;Signal;HPM_P1;HPM_P2
2022/12/01 00:01:45;;;;;;;7.53;4.15;;;17.60;99.90;;;;;;7401881;19;20277;-44
2022/12/01 00:04:14;;;;;;;7.25;4.78;;;17.60;99.90;;;;;;7401051;19;19921;-41
2022/12/01 00:06:42;;;;;;;7.72;5.22;;;17.60;99.90;;;;;;7401160;19;19915;-42
2022/12/01 00:11:56;;;;;;;7.20;4.93;;;17.60;99.90;;;;;;7411975;19;19919;-43
2022/12/01 00:14:25;;;;;;;7.18;3.85;;;17.50;99.90;;;;;;7407046;19;19939;-44
2022/12/01 00:16:54;;;;;;;7.07;3.83;;;17.50;99.90;;;;;;7408218;19;19922;-45
2022/12/01 00:19:26;;;;;;;7.28;3.78;;;17.50;99.90;;;;;;7408003;19;19928;-45
2022/12/01 00:21:55;;;;;;;7.05;4.10;;;17.50;99.90;;;;;;7407433;19;19933;-43
2022/12/01 00:24:25;;;;;;;6.70;3.90;;;17.50;99.90;;;;;;7407851;19;20295;-45
2022/12/01 00:26:56;;;;;;;7.28;4.22;;;17.50;99.90;;;;;;7407068;19;20266;-45
2022/12/01 00:29:25;;;;;;;8.20;5.63;;;17.50;99.90;;;;;;7410829;19;19919;-45
2022/12/01 00:31:54;;;;;;;7.35;4.93;;;17.50;99.90;;;;;;7407036;19;19913;-44
2022/12/01 00:34:24;;;;;;;7.10;4.90;;;17.50;99.90;;;;;;7408290;19;19936;-45
2022/12/01 00:36:53;;;;;;;8.05;5.28;;;17.40;99.90;;;;;;7406333;19;19955;-42
2022/12/01 00:39:22;;;;;;;6.85;4.57;;;17.50;99.90;;;;;;7406735;19;19915;-44
2022/12/01 00:41:51;;;;;;;8.18;4.50;;;17.50;99.90;;;;;;7407203;19;19918;-44
2022/12/01 00:44:23;;;;;;;8.07;5.28;;;17.50;99.90;;;;;;7408217;19;19919;-43
2022/12/01 00:46:52;;;;;;;8.32;4.93;;;17.40;99.90;;;;;;7406766;19;19943;-42
2022/12/01 00:49:21;;;;;;;6.45;4.13;;;17.40;99.90;;;;;;7406197;19;19923;-42
2022/12/01 00:51:49;;;;;;;6.70;4.90;;;17.40;99.90;;;;;;7406381;19;19929;-44
2022/12/01 00:54:18;;;;;;;8.18;5.53;;;17.40;99.90;;;;;;7406472;19;19929;-44
2022/12/01 00:56:47;;;;;;;8.35;5.00;;;17.40;99.90;;;;;;7405815;19;19926;-42
2022/12/01 00:59:16;;;;;;;7.10;4.03;;;17.40;99.90;;;;;;7406615;19;19917;-45
2022/12/01 01:01:48;;;;;;;7.80;5.35;;;17.30;99.90;;;;;;7407044;19;20352;-43
2022/12/01 01:04:17;;;;;;;6.63;4.32;;;17.30;99.90;;;;;;7405905;19;19958;-44
2022/12/01 01:06:46;;;;;;;7.45;4.90;;;17.30;99.90;;;;;;7406733;19;20433;-46
2022/12/01 01:09:16;;;;;;;7.40;4.32;;;17.30;99.90;;;;;;7407493;19;19995;-44
2022/12/01 01:11:45;;;;;;;;;;;17.30;99.90;;;;;;7409929;19;19926;-45
2022/12/01 01:14:14;;;;;;;7.82;4.75;;;17.30;99.90;;;;;;7406587;19;19982;-45
2022/12/01 01:16:43;;;;;;;6.90;3.55;;;17.30;99.90;;;;;;7406016;19;19929;-44
2022/12/01 01:19:14;;;;;;;8.82;4.55;;;17.30;99.90;;;;;;7406062;19;19942;-44
2022/12/01 01:21:43;;;;;;;6.28;4.00;;;17.30;99.90;;;;;;7404710;19;20272;-42
2022/12/01 01:24:12;;;;;;;7.22;5.05;;;17.30;99.90;;;;;;7408063;19;19923;-45
2022/12/01 01:26:41;;;;;;;7.15;4.57;;;17.20;99.90;;;;;;7405849;19;19918;-44
2022/12/01 01:29:10;;;;;;;6.70;4.07;;;17.20;99.90;;;;;;7409386;19;20338;-45
2022/12/01 01:31:39;;;;;;;6.60;4.60;;;17.20;99.90;;;;;;7406310;19;19923;-45
2022/12/01 01:34:08;;;;;;;8.27;5.30;;;17.20;99.90;;;;;;7407321;19;20364;-45
2022/12/01 01:36:39;;;;;;;7.93;4.78;;;17.20;99.90;;;;;;7402742;19;19919;-44
2022/12/01 01:39:08;;;;;;;7.55;4.82;;;17.20;99.90;;;;;;7403726;19;19937;-44
2022/12/01 01:41:37;;;;;;;7.22;5.10;;;17.20;99.90;;;;;;7403751;19;19927;-43
2022/12/01 01:44:21;;;;;;;7.05;5.00;;;17.20;99.90;;;;;;7406927;19;20053;-44
2022/12/01 01:46:50;;;;;;;6.05;4.13;;;17.20;99.90;;;;;;7403481;19;19930;-44
2022/12/01 01:49:18;;;;;;;7.00;4.18;;;17.20;99.90;;;;;;7403827;19;20276;-45
2022/12/01 01:51:52;;;;;;;7.35;3.72;;;17.20;99.90;;;;;;7403928;19;19910;-45
2022/12/01 01:54:25;;;;;;;6.63;3.53;;;17.20;99.90;;;;;;7408145;19;20355;-42
2022/12/01 01:56:55;;;;;;;7.15;4.35;;;17.20;99.90;;;;;;7407223;19;19926;-44
2022/12/01 01:59:30;;;;;;;6.20;3.72;;;17.20;99.90;;;;;;7408050;19;20345;-45
2022/12/01 02:02:05;;;;;;;7.88;4.88;;;17.20;99.90;;;;;;7404285;19;20009;-44
2022/12/01 02:04:36;;;;;;;7.88;3.28;;;17.10;99.90;;;;;;7404996;19;19940;-44
2022/12/01 02:07:08;;;;;;;7.47;4.82;;;17.10;99.90;;;;;;7404262;19;19918;-44
2022/12/01 02:09:38;;;;;;;7.05;3.95;;;17.10;99.90;;;;;;7409011;19;19922;-45
2022/12/01 02:12:18;;;;;;;7.63;4.93;;;17.10;99.90;;;;;;7406619;19;19939;-44
2022/12/01 02:15:07;;;;;;;6.78;4.47;;;17.10;99.90;;;;;;7406765;19;19925;-45
2022/12/01 02:17:44;;;;;;;7.55;4.28;;;17.10;99.90;;;;;;7403928;19;20267;-44
2022/12/01 02:20:48;;;;;;;7.30;4.30;;;17.10;99.90;;;;;;7407186;19;20262;-45
2022/12/01 02:23:51;;;;;;;6.90;3.75;;;17.10;99.90;;;;;;7403036;19;19917;-45
2022/12/01 02:26:39;;;;;;;8.15;5.15;;;17.10;99.90;;;;;;7401539;19;19935;-44
2022/12/01 02:29:44;;;;;;;8.02;5.20;;;17.10;99.90;;;;;;7403484;19;19919;-43
2022/12/01 02:32:25;;;;;;;7.35;5.10;;;17.10;99.90;;;;;;7406927;19;19917;-42
2022/12/01 02:35:00;;;;;;;6.35;4.15;;;17.10;99.90;;;;;;7403739;19;19911;-46
2022/12/01 02:37:35;;;;;;;7.20;3.90;;;17.10;99.90;;;;;;7405547;19;20267;-44
2022/12/01 02:40:14;;;;;;;8.75;5.20;;;17.10;99.90;;;;;;7403658;19;20351;-45
2022/12/01 02:42:52;;;;;;;6.38;4.38;;;17.00;99.90;;;;;;7407698;19;19949;-41
2022/12/01 02:45:37;;;;;;;7.60;5.10;;;17.10;99.90;;;;;;7403397;19;19922;-44
2022/12/01 02:48:13;;;;;;;6.78;4.90;;;17.10;99.90;;;;;;7401405;19;19925;-44
2022/12/01 02:50:44;;;;;;;6.95;3.75;;;17.10;99.90;;;;;;7403120;19;19923;-43
2022/12/01 02:53:16;;;;;;;6.18;3.58;;;17.10;99.90;;;;;;7403466;19;19922;-44
2022/12/01 02:55:54;;;;;;;7.47;5.28;;;17.10;99.90;;;;;;7403775;19;19946;-45
2022/12/01 02:58:23;;;;;;;7.43;4.63;;;17.10;99.90;;;;;;7402906;19;20282;-44
2022/12/01 03:01:16;;;;;;;7.22;3.72;;;17.10;99.90;;;;;;7404903;19;20341;-46
2022/12/01 03:04:10;;;;;;;6.95;5.13;;;17.10;99.90;;;;;;7401402;19;20355;-42
2022/12/01 03:06:48;;;;;;;6.60;4.32;;;17.10;99.90;;;;;;7401553;19;19949;-44
2022/12/01 03:09:27;;;;;;;6.93;3.70;;;17.10;99.90;;;;;;7405707;19;20293;-44
2022/12/01 03:12:06;;;;;;;8.57;5.25;;;17.10;99.90;;;;;;7402498;19;20340;-44
2022/12/01 03:14:43;;;;;;;6.78;3.95;;;17.00;99.90;;;;;;7401706;19;20560;-45
2022/12/01 03:17:17;;;;;;;6.35;4.68;;;17.00;99.90;;;;;;7401226;19;19970;-44
2022/12/01 03:19:55;;;;;;;6.43;4.72;;;17.00;99.90;;;;;;7405972;19;19914;-44
2022/12/01 03:22:30;;;;;;;7.03;4.53;;;17.00;99.90;;;;;;7401446;19;19939;-45
2022/12/01 03:25:02;;;;;;;7.20;4.13;;;17.00;99.90;;;;;;7402727;19;20252;-45
2022/12/01 03:27:37;;;;;;;7.28;4.82;;;17.00;99.90;;;;;;7402154;19;19943;-44
2022/12/01 03:30:09;;;;;;;8.07;4.90;;;17.00;99.90;;;;;;7404202;19;20373;-45
2022/12/01 03:32:46;;;;;;;8.20;4.25;;;17.00;99.90;;;;;;7401781;19;19911;-45
2022/12/01 03:35:22;;;;;;;7.25;4.20;;;17.00;99.90;;;;;;7404229;19;20359;-43
2022/12/01 03:37:53;;;;;;;;;;;17.00;99.90;;;;;;7404192;19;19918;-44
2022/12/01 03:40:26;;;;;;;7.25;3.85;;;17.00;99.90;;;;;;7401966;19;19919;-45
2022/12/01 03:42:59;;;;;;;8.55;4.22;;;17.00;99.90;;;;;;7403252;19;19955;-45
2022/12/01 03:45:33;;;;;;;6.45;3.70;;;17.00;99.90;;;;;;7406380;19;19918;-45
2022/12/01 03:48:02;;;;;;;7.00;4.35;;;17.00;99.90;;;;;;7408003;19;19911;-44
2022/12/01 03:50:44;;;;;;;7.47;4.15;;;17.00;99.90;;;;;;7411560;19;19933;-44
2022/12/01 03:53:20;;;;;;;6.05;3.70;;;16.90;99.90;;;;;;7412445;19;20330;-45
2022/12/01 03:55:52;;;;;;;;;;;17.00;99.90;;;;;;7409269;19;19932;-44
2022/12/01 03:58:25;;;;;;;7.68;5.28;;;16.90;99.90;;;;;;7409572;19;20336;-44
2022/12/01 04:00:56;;;;;;;8.43;4.97;;;16.90;99.90;;;;;;7407576;19;19933;-45
2022/12/01 04:03:27;;;;;;;8.02;4.80;;;16.90;99.90;;;;;;7409043;19;19926;-45
2022/12/01 04:05:59;;;;;;;7.43;5.05;;;16.90;99.90;;;;;;7409767;19;19923;-45
2022/12/01 04:08:32;;;;;;;7.57;4.03;;;16.90;99.90;;;;;;7410168;19;19931;-45
2022/12/01 04:12:27;;;;;;;8.00;5.10;;;16.90;99.90;;;;;;7407443;19;19970;-43
2022/12/01 04:13:48;;;;;;;8.35;4.90;;;16.90;99.90;;;;;;7407107;19;19921;-45
2022/12/01 04:16:17;;;;;;;9.07;5.25;;;16.90;99.90;;;;;;7405711;19;19922;-45
2022/12/01 04:18:46;;;;;;;8.18;5.28;;;16.90;99.90;;;;;;7405504;19;19927;-44
2022/12/01 04:21:17;;;;;;;6.95;4.30;;;16.90;99.90;;;;;;7410452;19;20261;-44
2022/12/01 04:24:01;;;;;;;7.38;3.78;;;16.90;99.90;;;;;;7405760;19;19942;-45
2022/12/01 04:26:31;;;;;;;6.60;4.22;;;16.90;99.90;;;;;;7411272;19;19927;-44
2022/12/01 04:29:00;;;;;;;6.65;3.58;;;16.80;99.90;;;;;;7409795;19;20273;-45
2022/12/01 04:31:29;;;;;;;6.72;4.10;;;16.90;99.90;;;;;;7404401;19;20041;-46
2022/12/01 04:33:59;;;;;;;7.95;5.63;;;16.90;99.90;;;;;;7405384;19;19923;-45
2022/12/01 04:36:33;;;;;;;7.65;4.00;;;16.90;99.90;;;;;;7405200;19;20305;-48
2022/12/01 04:39:02;;;;;;;7.57;4.63;;;16.80;99.90;;;;;;7410333;19;19919;-45
2022/12/01 04:41:31;;;;;;;7.45;4.03;;;16.80;99.90;;;;;;7406838;19;19925;-45
2022/12/01 04:44:00;;;;;;;6.75;4.05;;;16.80;99.90;;;;;;7406232;19;19927;-43
2022/12/01 04:46:29;;;;;;;6.55;4.53;;;16.80;99.90;;;;;;7407287;19;19929;-45
2022/12/01 04:48:57;;;;;;;7.65;3.88;;;16.90;99.90;;;;;;7408115;19;19925;-44
2022/12/01 04:51:26;;;;;;;7.53;4.53;;;16.90;99.90;;;;;;7407036;19;19931;-45
2022/12/01 04:53:58;;;;;;;7.50;4.05;;;16.80;99.90;;;;;;7406116;19;20019;-44
2022/12/01 04:56:27;;;;;;;7.97;5.53;;;16.80;99.90;;;;;;7401517;19;19926;-45
2022/12/01 04:58:57;;;;;;;7.75;4.05;;;16.80;99.90;;;;;;7409448;19;20355;-43
2022/12/01 05:01:27;;;;;;;7.65;4.18;;;16.80;99.90;;;;;;7406439;19;20345;-44
2022/12/01 05:03:55;;;;;;;7.70;4.80;;;16.80;99.90;;;;;;7408225;19;19938;-45
2022/12/01 05:06:26;;;;;;;6.93;4.65;;;16.80;99.90;;;;;;7406018;19;19926;-45
2022/12/01 05:09:00;;;;;;;8.32;4.35;;;16.80;99.90;;;;;;7407579;19;20312;-44
2022/12/01 05:11:33;;;;;;;7.30;5.20;;;16.80;99.90;;;;;;7405809;19;20442;-45
2022/12/01 05:14:03;;;;;;;8.23;5.40;;;16.80;99.90;;;;;;7410025;19;19922;-44
2022/12/01 05:16:33;;;;;;;8.68;4.28;;;16.80;99.90;;;;;;7404385;19;19942;-45
2022/12/01 05:21:49;;;;;;;6.65;4.00;;;16.80;99.90;;;;;;7405929;19;19930;-45
2022/12/01 05:24:22;;;;;;;7.82;4.97;;;16.80;99.90;;;;;;7404423;19;20535;-44
2022/12/01 05:26:51;;;;;;;8.50;5.70;;;16.80;99.90;;;;;;7403471;19;19919;-46
2022/12/01 05:29:20;;;;;;;7.63;5.20;;;16.80;99.90;;;;;;7405597;19;19915;-44
2022/12/01 05:31:49;;;;;;;7.15;4.68;;;16.70;99.90;;;;;;7405462;19;19911;-43
2022/12/01 05:34:18;;;;;;;7.43;5.00;;;16.80;99.90;;;;;;7405601;19;19926;-45
2022/12/01 05:36:46;;;;;;;7.38;4.97;;;16.70;99.90;;;;;;7402091;19;20371;-44
2022/12/01 05:39:16;;;;;;;6.97;3.75;;;16.70;99.90;;;;;;7405045;19;19911;-45
2022/12/01 05:41:47;;;;;;;6.63;4.47;;;16.70;99.90;;;;;;7404197;19;19926;-45
2022/12/01 05:44:16;;;;;;;7.18;4.25;;;16.70;99.90;;;;;;7404885;19;19947;-45
2022/12/01 05:46:45;;;;;;;6.63;3.95;;;16.70;99.90;;;;;;7407810;19;20403;-44
2022/12/01 05:49:14;;;;;;;8.43;5.10;;;16.70;99.90;;;;;;7406084;19;19987;-44
2022/12/01 05:51:44;;;;;;;6.70;3.72;;;16.70;99.90;;;;;;7404902;19;19938;-44
2022/12/01 05:54:13;;;;;;;7.45;4.80;;;16.70;99.90;;;;;;7403398;19;19926;-44
2022/12/01 05:56:42;;;;;;;7.32;4.03;;;16.70;99.90;;;;;;7404092;19;19926;-45
2022/12/01 05:59:13;;;;;;;8.10;4.47;;;16.70;99.90;;;;;;7406163;19;20261;-44
2022/12/01 06:01:42;;;;;;;7.82;5.63;;;16.70;99.90;;;;;;7402732;19;19933;-44
2022/12/01 06:04:11;;;;;;;6.63;4.85;;;16.70;99.90;;;;;;7406710;19;19921;-43
2022/12/01 06:06:40;;;;;;;7.68;4.72;;;16.70;99.90;;;;;;7402958;19;20602;-43
2022/12/01 06:09:09;;;;;;;7.13;4.53;;;16.70;99.90;;;;;;7404896;19;20379;-43
2022/12/01 06:11:38;;;;;;;7.03;3.90;;;16.70;99.90;;;;;;7405422;19;19926;-44
2022/12/01 06:14:08;;;;;;;8.40;4.30;;;16.70;99.90;;;;;;7404090;19;20354;-44
2022/12/01 06:16:40;;;;;;;9.05;5.88;;;16.70;99.90;;;;;;7403618;19;19974;-45
2022/12/01 06:19:09;;;;;;;8.15;4.40;;;16.70;99.90;;;;;;7405523;19;19911;-45
2022/12/01 06:21:38;;;;;;;7.47;4.68;;;16.70;99.90;;;;;;7404419;19;19990;-45
2022/12/01 06:24:07;;;;;;;6.60;3.80;;;16.70;99.90;;;;;;7402597;19;19922;-44
2022/12/01 06:26:36;;;;;;;6.75;3.75;;;16.70;99.90;;;;;;7404885;19;19930;-44
2022/12/01 06:29:05;;;;;;;7.28;3.72;;;16.70;99.90;;;;;;7406031;19;19915;-45
2022/12/01 06:31:34;;;;;;;7.10;4.22;;;16.70;99.90;;;;;;7403364;19;19919;-44
2022/12/01 06:34:05;;;;;;;7.68;5.68;;;16.60;99.90;;;;;;7407936;19;19921;-43
2022/12/01 06:36:34;;;;;;;6.68;4.60;;;16.70;99.90;;;;;;7403004;19;19915;-43
2022/12/01 06:39:03;;;;;;;7.32;4.68;;;16.60;99.90;;;;;;7403726;19;19930;-45
2022/12/01 06:41:33;;;;;;;7.40;5.30;;;16.60;99.90;;;;;;7403274;19;19930;-46
2022/12/01 06:44:03;;;;;;;6.47;3.60;;;16.60;99.90;;;;;;7403356;19;19925;-44
2022/12/01 06:46:32;;;;;;;;;;;16.60;99.90;;;;;;7410289;19;19921;-42
2022/12/01 06:49:00;;;;;;;6.45;3.72;;;16.60;99.90;;;;;;7402351;19;19918;-43
2022/12/01 06:51:33;;;;;;;7.22;5.03;;;16.60;99.90;;;;;;7405656;19;19962;-44
2022/12/01 06:54:02;;;;;;;7.38;5.18;;;16.60;99.90;;;;;;7404897;19;20008;-43
2022/12/01 06:56:31;;;;;;;8.00;4.45;;;16.60;99.90;;;;;;7402760;19;19914;-43
2022/12/01 06:58:59;;;;;;;8.30;5.40;;;16.60;99.90;;;;;;7402239;19;19919;-44
2022/12/01 07:01:28;;;;;;;6.50;3.58;;;16.60;99.90;;;;;;7399008;19;19923;-45
2022/12/01 07:03:57;;;;;;;7.57;4.50;;;16.60;99.90;;;;;;7402989;19;19918;-43
2022/12/01 07:06:26;;;;;;;6.47;3.47;;;16.60;99.90;;;;;;7403340;19;19929;-45
2022/12/01 07:08:57;;;;;;;6.70;4.72;;;16.60;99.90;;;;;;7405422;19;19922;-44
2022/12/01 07:11:27;;;;;;;9.10;5.10;;;16.70;99.90;;;;;;7407258;19;19919;-43
2022/12/01 07:13:57;;;;;;;7.22;5.50;;;16.70;99.90;;;;;;7403322;19;19918;-45
2022/12/01 07:16:27;;;;;;;6.85;4.47;;;16.70;99.90;;;;;;7405456;19;19910;-44
2022/12/01 07:18:56;;;;;;;7.25;4.15;;;16.80;99.90;;;;;;7399521;19;19911;-42
2022/12/01 07:21:25;;;;;;;8.38;4.10;;;16.80;99.90;;;;;;7402297;19;19926;-46
2022/12/01 07:23:57;;;;;;;7.07;4.07;;;16.80;99.90;;;;;;7401792;19;19921;-44
2022/12/01 07:26:26;;;;;;;6.60;4.45;;;16.70;99.90;;;;;;7404284;19;19957;-43
2022/12/01 07:28:55;;;;;;;6.57;3.90;;;16.80;99.90;;;;;;7404988;19;20278;-43
2022/12/01 07:31:23;;;;;;;7.00;3.88;;;16.70;99.90;;;;;;7402400;19;19918;-44
2022/12/01 07:33:54;;;;;;;8.80;4.57;;;16.70;99.90;;;;;;7401565;19;19915;-43
2022/12/01 07:36:23;;;;;;;7.18;4.13;;;16.70;99.90;;;;;;7403597;19;20419;-46
2022/12/01 07:38:52;;;;;;;8.02;5.13;;;16.70;99.90;;;;;;7401978;19;19925;-48
2022/12/01 07:41:23;;;;;;;7.90;5.22;;;16.70;99.90;;;;;;7400697;19;19922;-48
2022/12/01 07:43:52;;;;;;;8.55;5.15;;;16.70;99.90;;;;;;7402375;19;19922;-47
2022/12/01 07:46:23;;;;;;;7.60;4.28;;;16.70;99.90;;;;;;7402594;19;19915;-48
2022/12/01 07:48:52;;;;;;;7.55;4.82;;;16.70;99.90;;;;;;7402506;19;19922;-48
2022/12/01 07:51:22;;;;;;;8.07;5.03;;;16.70;99.90;;;;;;7401897;19;19925;-46
2022/12/01 07:53:52;;;;;;;8.15;4.35;;;16.60;99.90;;;;;;7401702;19;20577;-47
2022/12/01 07:56:24;;;;;;;8.27;3.97;;;16.70;99.90;;;;;;7400922;19;19934;-48
2022/12/01 07:58:53;;;;;;;7.72;3.92;;;16.60;99.90;;;;;;7398268;19;20245;-47
2022/12/01 08:01:23;;;;;;;7.97;5.95;;;16.60;99.90;;;;;;7402739;19;19922;-45
2022/12/01 08:03:54;;;;;;;6.97;4.15;;;16.60;99.90;;;;;;7401364;19;19951;-47
2022/12/01 08:06:23;;;;;;;7.55;3.92;;;16.60;99.90;;;;;;7402055;19;20326;-47
2022/12/01 08:08:53;;;;;;;8.30;4.00;;;16.60;99.90;;;;;;7400694;19;20278;-48
2022/12/01 08:11:28;;;;;;;8.52;5.07;;;16.60;99.90;;;;;;7403526;19;19929;-48
2022/12/01 08:13:57;;;;;;;7.15;3.88;;;16.60;99.90;;;;;;7400495;19;20359;-44
2022/12/01 08:16:27;;;;;;;7.55;5.07;;;16.60;99.90;;;;;;7403104;19;19928;-43
2022/12/01 08:18:56;;;;;;;8.13;4.22;;;16.60;99.90;;;;;;7398399;19;19915;-48
2022/12/01 08:21:26;;;;;;;7.30;4.32;;;16.60;99.90;;;;;;7400290;19;19918;-46
2022/12/01 08:23:55;;;;;;;;;;;16.60;99.90;;;;;;7403938;19;19921;-47
2022/12/01 08:26:28;;;;;;;8.60;5.03;;;16.60;99.90;;;;;;7399726;19;19921;-47
2022/12/01 08:28:57;;;;;;;8.95;4.40;;;16.60;99.90;;;;;;7399372;19;19918;-47
2022/12/01 08:31:28;;;;;;;7.40;4.20;;;16.60;99.90;;;;;;7406774;19;19918;-48
2022/12/01 08:33:57;;;;;;;7.88;4.50;;;16.60;99.90;;;;;;7409852;19;20427;-48
2022/12/01 08:36:27;;;;;;;7.53;3.97;;;16.60;99.90;;;;;;7404354;19;19944;-47
2022/12/01 08:38:57;;;;;;;7.93;4.32;;;16.60;99.90;;;;;;7403837;19;19922;-47
2022/12/01 08:41:30;;;;;;;7.57;4.35;;;16.60;99.90;;;;;;7410212;19;19918;-48
2022/12/01 08:43:59;;;;;;;7.85;5.18;;;16.60;99.90;;;;;;7409581;19;19922;-46
2022/12/01 08:46:29;;;;;;;8.00;4.22;;;16.60;99.90;;;;;;7409388;19;19936;-44
2022/12/01 08:48:58;;;;;;;8.30;4.60;;;16.60;99.90;;;;;;7404702;19;19923;-43
2022/12/01 08:51:27;;;;;;;9.13;4.57;;;16.60;99.90;;;;;;7407636;19;19923;-45
2022/12/01 08:53:58;;;;;;;6.72;4.88;;;16.60;99.90;;;;;;7406362;19;19998;-44
2022/12/01 08:56:31;;;;;;;9.25;4.40;;;16.60;99.90;;;;;;7405743;19;19915;-43
2022/12/01 08:59:01;;;;;;;7.53;4.55;;;16.60;99.90;;;;;;7403528;19;19929;-48
2022/12/01 09:01:30;;;;;;;7.95;4.80;;;16.60;99.90;;;;;;7410048;19;19918;-48
2022/12/01 09:04:09;;;;;;;8.20;4.70;;;16.60;99.90;;;;;;7406758;19;19919;-48
2022/12/01 09:06:41;;;;;;;9.18;4.68;;;16.60;99.90;;;;;;7405902;19;20281;-48
2022/12/01 09:09:11;;;;;;;9.07;5.38;;;16.60;99.90;;;;;;7406148;19;19918;-48
2022/12/01 09:11:44;;;;;;;8.68;4.97;;;16.60;99.90;;;;;;7405859;19;20388;-48
2022/12/01 09:14:14;;;;;;;8.50;4.32;;;16.60;99.90;;;;;;7406095;19;20341;-47
2022/12/01 09:16:45;;;;;;;6.65;4.35;;;16.60;99.90;;;;;;7405851;19;19918;-48
2022/12/01 09:19:14;;;;;;;7.85;5.32;;;16.60;99.90;;;;;;7403198;19;19919;-49
2022/12/01 09:21:44;;;;;;;8.93;5.30;;;16.60;99.90;;;;;;7405678;19;19928;-48
2022/12/01 09:24:14;;;;;;;9.52;5.93;;;16.60;99.90;;;;;;7403748;19;19933;-46
2022/12/01 09:26:46;;;;;;;8.77;5.88;;;16.60;99.90;;;;;;7405517;19;19911;-48
2022/12/01 09:29:16;;;;;;;8.55;4.80;;;16.60;99.90;;;;;;7405443;19;19938;-48
2022/12/01 09:31:45;;;;;;;9.02;5.47;;;16.60;99.90;;;;;;7406389;19;19911;-47
2022/12/01 09:34:16;;;;;;;9.23;6.25;;;16.60;99.90;;;;;;7404564;19;19919;-47
2022/12/01 09:36:46;;;;;;;8.02;5.25;;;16.60;99.90;;;;;;7404815;19;19914;-46
2022/12/01 09:39:16;;;;;;;;;;;16.60;99.90;;;;;;7408093;19;19931;-47
2022/12/01 09:41:50;;;;;;;8.75;5.22;;;16.60;99.90;;;;;;7403628;19;19978;-48
2022/12/01 09:44:36;;;;;;;9.73;5.90;;;16.60;99.90;;;;;;7405298;19;19918;-48
2022/12/01 09:47:17;;;;;;;7.60;3.88;;;16.60;99.90;;;;;;7405072;19;19922;-48
2022/12/01 09:49:58;;;;;;;8.95;5.60;;;16.60;99.90;;;;;;7405140;19;19923;-48
2022/12/01 09:52:29;;;;;;;8.48;4.63;;;16.60;99.90;;;;;;7404973;19;20427;-49
2022/12/01 09:55:00;;;;;;;9.70;5.88;;;16.60;99.90;;;;;;7404813;19;19922;-48
2022/12/01 09:57:35;;;;;;;9.23;5.82;;;16.60;99.90;;;;;;7404511;19;19920;-47
2022/12/01 10:00:09;;;;;;;8.65;5.95;;;16.60;99.90;;;;;;7404789;19;19915;-47
2022/12/01 10:02:40;;;;;;;8.75;5.20;;;16.60;99.90;;;;;;7405051;19;20005;-48
2022/12/01 10:05:16;;;;;;;8.32;5.82;;;16.60;99.90;;;;;;7404785;19;19978;-47
2022/12/01 10:07:50;;;;;;;8.52;5.10;;;16.60;99.90;;;;;;7405531;19;19922;-48
2022/12/01 10:10:26;;;;;;;8.55;5.03;;;16.70;99.90;;;;;;7404202;19;19933;-48
2022/12/01 10:12:59;;;;;;;8.93;5.57;;;16.70;99.90;;;;;;7403265;19;19919;-46
2022/12/01 10:15:42;;;;;;;8.75;5.43;;;16.60;99.90;;;;;;7406370;19;19919;-47
2022/12/01 10:18:27;;;;;;;9.10;6.00;;;16.60;99.90;;;;;;7406365;19;19926;-45
2022/12/01 10:21:04;;;;;;;8.05;4.40;;;16.70;99.90;;;;;;7406287;19;20300;-48
2022/12/01 10:23:45;;;;;;;8.90;5.10;;;16.70;99.90;;;;;;7405880;19;19915;-47
2022/12/01 10:26:16;;;;;;;8.43;4.35;;;16.70;99.90;;;;;;7403618;19;20355;-44
2022/12/01 10:28:59;;;;;;;7.93;5.32;;;16.70;99.90;;;;;;7404115;19;19937;-47
2022/12/01 10:31:36;;;;;;;8.75;5.70;;;16.60;99.90;;;;;;7404058;19;19915;-47
2022/12/01 10:34:08;;;;;;;7.50;4.32;;;16.70;99.90;;;;;;7403385;19;20276;-47
2022/12/01 10:36:37;;;;;;;9.63;4.50;;;16.70;99.90;;;;;;7401966;19;19926;-48
2022/12/01 10:39:08;;;;;;;8.98;6.25;;;16.70;99.90;;;;;;7402658;19;19934;-48
2022/12/01 10:41:40;;;;;;;8.50;4.35;;;16.70;99.90;;;;;;7403469;19;19918;-47
2022/12/01 10:44:12;;;;;;;8.10;5.40;;;16.70;99.90;;;;;;7405939;19;19931;-46
2022/12/01 10:46:47;;;;;;;8.43;5.05;;;16.70;99.90;;;;;;7391007;19;19930;-47
2022/12/01 10:49:18;;;;;;;8.90;5.63;;;16.70;99.90;;;;;;7399338;19;19933;-55
2022/12/01 10:51:57;;;;;;;9.93;4.95;;;16.80;99.90;;;;;;7403798;19;19929;-48
2022/12/01 10:54:34;;;;;;;10.63;5.13;;;16.90;99.90;;;;;;7398459;19;20267;-56
2022/12/01 10:57:04;;;;;;;9.00;4.85;;;17.00;99.90;;;;;;7404547;19;19923;-54
2022/12/01 10:59:40;;;;;;;9.63;5.10;;;17.10;99.90;;;;;;7399812;19;20019;-56
2022/12/01 11:02:19;;;;;;;8.15;5.13;;;17.20;99.90;;;;;;7404905;19;19919;-56
2022/12/01 11:04:54;;;;;;;10.30;5.90;;;17.30;99.90;;;;;;7402191;19;19918;-57
2022/12/01 11:07:26;;;;;;;8.27;5.68;;;17.40;99.90;;;;;;7401564;19;19962;-56
2022/12/01 11:10:06;;;;;;;9.15;5.55;;;17.50;99.90;;;;;;7403040;19;19918;-46
2022/12/01 11:12:36;;;;;;;9.35;5.07;;;17.60;99.90;;;;;;7402411;19;19943;-47
2022/12/01 11:15:09;;;;;;;8.25;5.55;;;17.80;99.90;;;;;;7401087;19;19940;-50
2022/12/01 11:17:42;;;;;;;8.15;5.53;;;17.80;99.90;;;;;;7401882;19;19930;-50
2022/12/01 11:20:34;;;;;;;9.20;4.95;;;18.00;99.90;;;;;;7402883;19;20344;-51
2022/12/01 11:23:29;;;;;;;7.78;4.10;;;18.10;99.90;;;;;;7399981;19;20244;-51
2022/12/01 11:26:05;;;;;;;8.13;4.82;;;18.30;99.90;;;;;;7397586;19;19929;-51
2022/12/01 11:28:36;;;;;;;7.97;5.50;;;18.30;99.90;;;;;;7400584;19;19929;-51
2022/12/01 11:31:10;;;;;;;7.70;4.70;;;18.40;99.90;;;;;;7401736;19;19977;-52
2022/12/01 11:33:46;;;;;;;8.38;5.05;;;18.50;99.90;;;;;;7400484;19;19962;-51
2022/12/01 11:36:27;;;;;;;7.47;4.22;;;18.70;99.90;;;;;;7399507;19;20345;-52
2022/12/01 11:38:59;;;;;;;8.15;4.75;;;18.70;99.90;;;;;;7402011;19;19926;-53
2022/12/01 11:41:35;;;;;;;8.35;5.30;;;18.90;99.90;;;;;;7401308;19;19937;-49
2022/12/01 11:44:05;;;;;;;;;;;18.90;99.90;;;;;;7403639;19;19923;-49
2022/12/01 11:46:41;;;;;;;7.35;4.93;;;19.00;99.90;;;;;;7401741;19;20288;-51
2022/12/01 11:49:18;;;;;;;7.32;4.82;;;19.10;99.90;;;;;;7400066;19;19974;-50
2022/12/01 11:51:47;;;;;;;7.85;4.47;;;19.20;99.90;;;;;;7400014;19;20296;-52
2022/12/01 11:54:19;;;;;;;8.20;5.00;;;19.30;99.90;;;;;;7399769;19;19922;-52
2022/12/01 11:56:49;;;;;;;7.40;4.85;;;19.30;99.90;;;;;;7398876;19;19926;-49
2022/12/01 11:59:23;;;;;;;8.65;5.32;;;19.40;99.90;;;;;;7397979;19;20018;-51
2022/12/01 12:02:15;;;;;;;7.60;4.97;;;19.40;99.90;;;;;;7400552;19;19918;-51
2022/12/01 12:05:01;;;;;;;7.65;4.95;;;19.40;99.90;;;;;;7398576;19;19923;-50
2022/12/01 12:07:41;;;;;;;7.45;4.85;;;19.50;99.90;;;;;;7404918;19;20370;-47
2022/12/01 12:10:37;;;;;;;6.78;4.10;;;19.50;99.90;;;;;;7407146;19;20367;-51
2022/12/01 12:13:30;;;;;;;7.50;5.30;;;19.60;99.90;;;;;;7406043;19;19923;-54
2022/12/01 12:16:08;;;;;;;7.68;4.93;;;19.70;99.90;;;;;;7407147;19;19929;-56
2022/12/01 12:18:53;;;;;;;6.43;4.97;;;19.70;99.90;;;;;;7407553;19;19918;-47
2022/12/01 12:21:33;;;;;;;7.03;4.85;;;19.70;99.90;;;;;;7405332;19;20226;-50
2022/12/01 12:24:24;;;;;;;6.78;4.75;;;19.70;99.90;;;;;;7406674;19;19915;-51
2022/12/01 12:27:01;;;;;;;6.85;4.93;;;19.80;99.90;;;;;;7406035;19;19954;-47
2022/12/01 12:29:49;;;;;;;7.32;4.80;;;19.80;99.90;;;;;;7406990;19;19929;-47
2022/12/01 12:32:32;;;;;;;7.68;4.85;;;19.70;99.90;;;;;;7405489;19;19915;-47
2022/12/01 12:35:17;;;;;;;7.60;5.03;;;19.80;99.90;;;;;;7401484;19;20409;-46
2022/12/01 12:38:07;;;;;;;9.57;5.32;;;19.80;99.90;;;;;;7403494;19;19922;-49
2022/12/01 12:40:47;;;;;;;6.80;4.75;;;19.80;99.90;;;;;;7405556;19;19933;-49
2022/12/01 12:43:28;;;;;;;7.25;4.28;;;19.80;99.90;;;;;;7407298;19;19918;-45
2022/12/01 12:46:03;;;;;;;6.97;4.32;;;19.80;99.90;;;;;;7405264;19;19939;-49
2022/12/01 12:49:02;;;;;;;7.68;5.22;;;19.70;99.90;;;;;;7402322;19;19959;-49
2022/12/01 12:51:36;;;;;;;7.65;4.78;;;19.70;99.90;;;;;;7404713;19;19926;-48
2022/12/01 12:54:16;;;;;;;6.85;4.95;;;19.70;99.90;;;;;;7404599;19;19926;-48
2022/12/01 12:56:48;;;;;;;7.05;4.95;;;19.70;99.90;;;;;;7403593;19;19918;-50
2022/12/01 12:59:21;;;;;;;6.57;4.55;;;19.70;99.90;;;;;;7405291;19;19926;-52
2022/12/01 13:01:58;;;;;;;5.85;3.55;;;19.60;99.90;;;;;;7405353;19;20383;-49
2022/12/01 13:04:33;;;;;;;6.68;4.45;;;19.50;99.90;;;;;;7408114;19;19922;-50
2022/12/01 13:07:08;;;;;;;7.25;3.95;;;19.50;99.90;;;;;;7405482;19;20348;-49
2022/12/01 13:09:43;;;;;;;6.68;4.80;;;19.50;99.90;;;;;;7407708;19;19926;-49
2022/12/01 13:12:15;;;;;;;6.80;4.60;;;19.50;99.90;;;;;;7409249;19;19931;-50
2022/12/01 13:14:48;;;;;;;7.78;4.35;;;19.40;99.90;;;;;;7407832;19;19923;-49
2022/12/01 13:17:22;;;;;;;7.60;4.88;;;19.40;99.90;;;;;;7404141;19;19934;-48
2022/12/01 13:19:51;;;;;;;6.72;3.42;;;19.40;99.90;;;;;;7404124;19;19940;-49
2022/12/01 13:22:29;;;;;;;7.20;4.05;;;19.40;99.90;;;;;;7406183;19;21900;-49
2022/12/01 13:24:58;;;;;;;6.95;4.07;;;19.30;99.90;;;;;;7407952;19;19918;-49